Time;durP1;ratioP1;P1;durP2;ratioP2;P2;SDS_P1;SDS_P2;PMS_P1;PMS_P2;Temp;Humidity;BMP_temperature;BMP_pressure;BME280_temperature;BME280_humidity;BME280_pressure;Samples;Min_cycle;Max_cycle;Signal;HPM_P1;HPM_P2
2022/03/31 00:00:34;;;;;;;3.05;0.50;;;;;;;;;;5111941;28;20066;-62
2022/03/31 00:03:01;;;;;;;2.08;0.60;;;;;;;;;;5111946;28;20039;-63
2022/03/31 00:05:27;;;;;;;1.50;0.60;;;;;;;;;;5113255;27;20110;-65
2022/03/31 00:08:00;;;;;;;4.18;0.63;;;;;;;;;;5111774;28;20399;-64
2022/03/31 00:10:29;;;;;;;2.40;0.60;;;;;;;;;;5111938;28;20043;-63
2022/03/31 00:12:56;;;;;;;1.23;0.40;;;;;;;;;;5111699;28;20068;-66
2022/03/31 00:15:23;;;;;;;2.17;0.63;;;;;;;;;;5111913;28;20027;-63
2022/03/31 00:17:49;;;;;;;4.80;0.80;;;;;;;;;;5112179;28;20027;-64
2022/03/31 00:32:30;;;;;;;7.00;0.68;;;;;;;;;;5120045;27;20074;-66
2022/03/31 00:34:56;;;;;;;3.38;0.82;;;;;;;;;;5119939;27;20051;-69
2022/03/31 00:37:38;;;;;;;6.13;0.80;;;;;;;;;;5112056;28;20034;-70
2022/03/31 00:40:04;;;;;;;2.05;0.63;;;;;;;;;;5112088;28;20024;-71
2022/03/31 00:42:30;;;;;;;2.35;0.50;;;;;;;;;;5110619;28;20437;-68
2022/03/31 00:44:56;;;;;;;4.60;0.75;;;;;;;;;;5093255;28;20030;-66
2022/03/31 00:47:23;;;;;;;3.90;0.73;;;;;;;;;;5093781;28;20122;-66
2022/03/31 00:49:49;;;;;;;3.38;0.60;;;;;;;;;;5117518;27;20026;-63
2022/03/31 00:52:15;;;;;;;4.32;0.60;;;;;;;;;;5111420;28;20028;-63
2022/03/31 00:54:42;;;;;;;1.90;0.60;;;;;;;;;;5111650;28;20073;-68
2022/03/31 00:57:10;;;;;;;4.60;0.73;;;;;;;;;;5110884;28;20019;-63
2022/03/31 00:59:37;;;;;;;3.65;0.65;;;;;;;;;;5111173;28;20019;-66
2022/03/31 01:02:03;;;;;;;1.52;0.65;;;;;;;;;;5111280;28;20023;-66
2022/03/31 01:04:29;;;;;;;3.42;0.63;;;;;;;;;;5111106;28;20035;-65
2022/03/31 01:06:56;;;;;;;2.17;0.57;;;;;;;;;;5111306;28;20039;-63
2022/03/31 01:09:22;;;;;;;2.58;0.60;;;;;;;;;;5111250;28;20030;-68
2022/03/31 01:11:48;;;;;;;5.15;0.60;;;;;;;;;;5111034;28;20024;-68
2022/03/31 01:14:15;;;;;;;3.15;0.50;;;;;;;;;;5111085;28;20020;-62
2022/03/31 01:16:41;;;;;;;0.98;0.60;;;;;;;;;;5111099;28;20023;-68
2022/03/31 01:19:09;;;;;;;1.38;0.50;;;;;;;;;;5111073;28;20043;-70
2022/03/31 01:21:38;;;;;;;1.92;0.60;;;;;;;;;;5111356;28;20653;-71
2022/03/31 01:24:08;;;;;;;1.65;0.50;;;;;;;;;;5112932;28;20144;-69
2022/03/31 01:26:35;;;;;;;3.42;0.52;;;;;;;;;;5131090;27;20046;-69
2022/03/31 01:29:02;;;;;;;2.42;0.50;;;;;;;;;;5131332;28;20034;-63
2022/03/31 01:31:28;;;;;;;0.98;0.40;;;;;;;;;;5112636;28;20110;-64
2022/03/31 01:33:54;;;;;;;2.17;0.45;;;;;;;;;;5131065;28;20470;-65
2022/03/31 01:36:20;;;;;;;3.47;0.60;;;;;;;;;;5130464;28;20466;-68
2022/03/31 01:38:50;;;;;;;2.25;0.50;;;;;;;;;;5119913;28;20027;-61
2022/03/31 01:41:16;;;;;;;3.33;0.50;;;;;;;;;;5110535;28;20474;-66
2022/03/31 01:43:42;;;;;;;1.27;0.52;;;;;;;;;;5110640;28;20032;-68
2022/03/31 01:46:09;;;;;;;1.98;0.50;;;;;;;;;;5092587;28;20408;-69
2022/03/31 01:48:35;;;;;;;1.02;0.60;;;;;;;;;;5092881;28;20566;-66
2022/03/31 01:51:04;;;;;;;5.72;0.90;;;;;;;;;;5110642;28;20442;-69
2022/03/31 01:53:30;;;;;;;2.83;0.55;;;;;;;;;;5110971;28;20061;-71
2022/03/31 01:55:57;;;;;;;1.40;0.60;;;;;;;;;;5114620;28;20020;-65
2022/03/31 01:58:23;;;;;;;1.20;0.40;;;;;;;;;;5110954;28;20068;-67
2022/03/31 02:00:50;;;;;;;3.58;0.63;;;;;;;;;;5110382;28;20412;-67
2022/03/31 02:03:16;;;;;;;0.47;0.47;;;;;;;;;;5110693;28;20035;-67
2022/03/31 02:05:43;;;;;;;2.30;0.50;;;;;;;;;;5110395;28;20467;-71
2022/03/31 02:08:09;;;;;;;1.50;0.50;;;;;;;;;;5110974;28;20043;-68
2022/03/31 02:10:35;;;;;;;2.45;0.75;;;;;;;;;;5122386;27;20102;-68
2022/03/31 02:13:01;;;;;;;0.50;0.40;;;;;;;;;;5127627;27;20030;-61
2022/03/31 02:15:29;;;;;;;0.68;0.47;;;;;;;;;;5134911;27;20118;-62
2022/03/31 02:17:55;;;;;;;1.10;0.45;;;;;;;;;;5135248;27;20027;-64
2022/03/31 02:20:22;;;;;;;2.88;0.50;;;;;;;;;;5135095;27;20023;-64
2022/03/31 02:22:48;;;;;;;1.92;0.75;;;;;;;;;;5134711;27;20023;-63
2022/03/31 02:25:14;;;;;;;2.60;0.50;;;;;;;;;;5122527;27;20098;-64
2022/03/31 02:27:40;;;;;;;0.52;0.50;;;;;;;;;;5114247;28;20065;-66
2022/03/31 02:30:07;;;;;;;0.95;0.60;;;;;;;;;;5114461;28;20027;-67
2022/03/31 02:32:34;;;;;;;1.92;0.57;;;;;;;;;;5114221;28;20068;-70
2022/03/31 02:35:00;;;;;;;6.13;0.70;;;;;;;;;;5114435;28;20065;-70
2022/03/31 02:37:26;;;;;;;1.92;0.43;;;;;;;;;;5114490;27;20106;-63
2022/03/31 02:39:52;;;;;;;2.65;0.60;;;;;;;;;;5114376;27;20030;-64
2022/03/31 02:42:18;;;;;;;1.52;0.40;;;;;;;;;;5113357;28;20024;-69
2022/03/31 02:44:45;;;;;;;0.70;0.50;;;;;;;;;;5114146;28;20023;-64
2022/03/31 02:47:11;;;;;;;2.90;0.47;;;;;;;;;;5113886;28;20069;-64
2022/03/31 02:49:38;;;;;;;2.13;0.70;;;;;;;;;;5113817;28;20023;-63
2022/03/31 02:52:04;;;;;;;3.90;0.60;;;;;;;;;;5095152;28;20020;-65
2022/03/31 02:57:15;;;;;;;0.90;0.50;;;;;;;;;;5127590;27;20043;-62
2022/03/31 02:59:41;;;;;;;1.00;0.40;;;;;;;;;;5113569;28;20027;-64
2022/03/31 03:02:07;;;;;;;2.65;0.70;;;;;;;;;;5113062;28;20034;-64
2022/03/31 03:04:34;;;;;;;5.50;0.60;;;;;;;;;;5113608;28;20051;-65
2022/03/31 03:07:00;;;;;;;1.35;0.50;;;;;;;;;;5113279;28;20036;-62
2022/03/31 03:09:26;;;;;;;1.50;0.50;;;;;;;;;;5113405;28;20031;-65
2022/03/31 03:11:52;;;;;;;3.78;0.70;;;;;;;;;;5113124;28;20045;-68
2022/03/31 03:14:18;;;;;;;1.33;0.52;;;;;;;;;;5113115;28;20398;-65
2022/03/31 03:16:44;;;;;;;0.85;0.60;;;;;;;;;;5113318;28;20152;-62
2022/03/31 03:19:10;;;;;;;1.35;0.55;;;;;;;;;;5112759;28;20020;-65
2022/03/31 03:21:36;;;;;;;2.50;0.50;;;;;;;;;;5112839;28;20030;-62
2022/03/31 03:24:03;;;;;;;2.30;0.47;;;;;;;;;;5113521;27;20024;-71
2022/03/31 03:26:30;;;;;;;1.70;0.60;;;;;;;;;;5106570;28;20418;-63
2022/03/31 03:28:56;;;;;;;1.85;0.50;;;;;;;;;;5113250;28;20015;-62
2022/03/31 03:31:22;;;;;;;1.08;0.52;;;;;;;;;;5094836;28;20020;-62
2022/03/31 03:33:48;;;;;;;4.13;0.60;;;;;;;;;;5113032;28;20055;-64
2022/03/31 03:36:17;;;;;;;2.35;0.50;;;;;;;;;;5112685;28;20478;-62
2022/03/31 03:38:44;;;;;;;0.60;0.60;;;;;;;;;;5112632;28;20035;-67
2022/03/31 03:41:11;;;;;;;1.42;0.65;;;;;;;;;;5099743;27;20027;-64
2022/03/31 03:43:37;;;;;;;0.82;0.50;;;;;;;;;;5132289;27;20030;-64
2022/03/31 03:46:03;;;;;;;1.60;0.60;;;;;;;;;;5133022;27;20034;-64
2022/03/31 03:48:29;;;;;;;1.08;0.60;;;;;;;;;;5133104;27;20065;-64
2022/03/31 03:50:55;;;;;;;7.05;0.70;;;;;;;;;;5114441;27;20051;-68
2022/03/31 03:53:22;;;;;;;0.77;0.60;;;;;;;;;;5133064;27;20076;-67
2022/03/31 03:55:48;;;;;;;1.63;0.60;;;;;;;;;;5133421;27;20030;-72
2022/03/31 03:58:14;;;;;;;6.90;0.50;;;;;;;;;;5132966;27;20110;-69
2022/03/31 04:00:40;;;;;;;2.33;0.60;;;;;;;;;;5114616;27;20115;-64
2022/03/31 04:03:07;;;;;;;0.50;0.50;;;;;;;;;;5112533;28;20015;-69
2022/03/31 04:05:33;;;;;;;2.83;0.50;;;;;;;;;;5112819;28;20015;-67
2022/03/31 04:07:59;;;;;;;2.05;0.65;;;;;;;;;;5111861;28;20469;-67
2022/03/31 04:10:26;;;;;;;1.17;0.60;;;;;;;;;;5111931;28;20106;-70
2022/03/31 04:12:52;;;;;;;1.65;0.50;;;;;;;;;;5095101;27;20035;-65
2022/03/31 04:15:18;;;;;;;4.15;0.70;;;;;;;;;;5098388;28;20059;-67
2022/03/31 04:17:44;;;;;;;0.90;0.52;;;;;;;;;;5112035;28;20051;-63
2022/03/31 04:20:11;;;;;;;0.70;0.50;;;;;;;;;;5111828;28;20031;-71
2022/03/31 04:22:37;;;;;;;1.20;0.60;;;;;;;;;;5111729;28;20043;-67
2022/03/31 04:25:04;;;;;;;1.90;0.60;;;;;;;;;;5111745;28;20386;-68
2022/03/31 04:27:30;;;;;;;3.70;0.70;;;;;;;;;;5093768;28;20471;-67
2022/03/31 04:29:56;;;;;;;1.35;0.52;;;;;;;;;;5111779;28;20439;-64
2022/03/31 04:32:22;;;;;;;8.43;0.80;;;;;;;;;;5110938;28;20027;-67
2022/03/31 04:34:48;;;;;;;11.65;1.17;;;;;;;;;;5111630;28;20027;-64
2022/03/31 04:37:14;;;;;;;3.85;0.65;;;;;;;;;;5093095;28;20443;-68
2022/03/31 04:39:40;;;;;;;6.22;0.70;;;;;;;;;;5111162;28;20037;-66
2022/03/31 04:42:09;;;;;;;2.25;0.77;;;;;;;;;;5116762;27;20031;-67
2022/03/31 04:44:37;;;;;;;9.63;1.10;;;;;;;;;;5105054;27;20023;-66
2022/03/31 04:47:04;;;;;;;9.18;1.35;;;;;;;;;;5120285;27;20115;-66
2022/03/31 04:49:30;;;;;;;5.40;1.10;;;;;;;;;;5131706;27;20080;-64
2022/03/31 04:51:56;;;;;;;3.58;0.80;;;;;;;;;;5131578;27;20023;-66
2022/03/31 04:54:22;;;;;;;1.20;0.60;;;;;;;;;;5131690;27;20030;-63
2022/03/31 04:56:48;;;;;;;10.73;0.80;;;;;;;;;;5119421;27;20032;-65
2022/03/31 04:59:14;;;;;;;8.52;0.85;;;;;;;;;;5094468;28;20032;-66
2022/03/31 05:01:40;;;;;;;12.18;0.80;;;;;;;;;;5118991;27;20027;-65
2022/03/31 05:04:06;;;;;;;4.53;0.70;;;;;;;;;;5100278;27;20019;-66
2022/03/31 05:06:32;;;;;;;7.70;0.90;;;;;;;;;;5118667;27;20042;-66
2022/03/31 05:08:59;;;;;;;4.03;0.82;;;;;;;;;;5118698;27;20012;-66
2022/03/31 05:11:25;;;;;;;7.65;0.98;;;;;;;;;;5119851;27;20011;-67
2022/03/31 05:13:51;;;;;;;7.15;0.90;;;;;;;;;;5123154;27;20492;-66
2022/03/31 05:16:17;;;;;;;7.75;0.88;;;;;;;;;;5129566;27;20088;-64
2022/03/31 05:18:43;;;;;;;3.63;0.68;;;;;;;;;;5114628;27;20035;-65
2022/03/31 05:21:09;;;;;;;13.77;1.10;;;;;;;;;;5124697;27;20034;-65
2022/03/31 05:23:35;;;;;;;29.50;1.20;;;;;;;;;;5123001;27;20043;-64
2022/03/31 05:26:01;;;;;;;50.33;2.00;;;;;;;;;;5121472;27;20056;-64
2022/03/31 05:28:27;;;;;;;77.07;2.15;;;;;;;;;;5117287;27;20467;-62
2022/03/31 05:30:53;;;;;;;40.03;1.77;;;;;;;;;;5117827;28;20015;-63
2022/03/31 05:33:19;;;;;;;36.50;1.40;;;;;;;;;;5112846;28;20096;-63
2022/03/31 05:35:45;;;;;;;34.10;1.52;;;;;;;;;;5117358;28;20020;-63
2022/03/31 05:38:11;;;;;;;17.55;1.60;;;;;;;;;;5116071;28;20110;-63
2022/03/31 05:40:38;;;;;;;21.90;1.67;;;;;;;;;;5121516;28;20098;-64
2022/03/31 05:43:04;;;;;;;16.40;0.98;;;;;;;;;;5120886;27;20023;-64
2022/03/31 05:45:29;;;;;;;6.97;1.02;;;;;;;;;;5111079;27;20027;-63
2022/03/31 05:47:55;;;;;;;25.90;1.40;;;;;;;;;;5122906;27;20092;-63
2022/03/31 05:50:21;;;;;;;10.88;1.15;;;;;;;;;;5125413;27;20046;-65
2022/03/31 05:52:47;;;;;;;14.25;1.20;;;;;;;;;;5135283;27;20095;-64
2022/03/31 05:55:16;;;;;;;14.98;1.17;;;;;;;;;;5135695;27;20035;-65
2022/03/31 05:57:43;;;;;;;18.13;1.17;;;;;;;;;;5119368;27;20034;-64
2022/03/31 06:00:10;;;;;;;22.35;1.45;;;;;;;;;;5115318;27;20054;-65
2022/03/31 06:02:36;;;;;;;15.48;1.30;;;;;;;;;;5114710;28;20020;-65
2022/03/31 06:05:02;;;;;;;4.47;1.02;;;;;;;;;;5114934;28;20382;-64
2022/03/31 06:07:28;;;;;;;5.18;0.90;;;;;;;;;;5114975;27;20119;-64
2022/03/31 06:09:54;;;;;;;7.07;0.90;;;;;;;;;;5117157;27;20032;-64
2022/03/31 06:12:20;;;;;;;5.43;0.95;;;;;;;;;;5114974;28;20096;-64
2022/03/31 06:14:46;;;;;;;3.88;0.88;;;;;;;;;;5122013;27;20027;-65
2022/03/31 06:17:12;;;;;;;4.78;1.02;;;;;;;;;;5125217;27;20107;-67
2022/03/31 06:19:38;;;;;;;8.98;0.95;;;;;;;;;;5119461;27;20098;-64
2022/03/31 06:22:05;;;;;;;6.55;0.82;;;;;;;;;;5121965;27;20106;-64
2022/03/31 06:24:31;;;;;;;9.55;1.15;;;;;;;;;;5125284;27;20542;-66
2022/03/31 06:26:57;;;;;;;9.73;1.30;;;;;;;;;;5125030;27;20546;-67
2022/03/31 06:29:25;;;;;;;2.70;0.80;;;;;;;;;;5123075;27;20039;-67
2022/03/31 06:31:51;;;;;;;10.27;1.02;;;;;;;;;;5105176;27;20110;-64
2022/03/31 06:34:18;;;;;;;8.32;0.93;;;;;;;;;;5124644;27;20030;-69
2022/03/31 06:36:44;;;;;;;3.78;0.90;;;;;;;;;;5125576;27;20455;-70
2022/03/31 06:39:10;;;;;;;13.57;1.17;;;;;;;;;;5125405;27;20038;-61
2022/03/31 06:41:36;;;;;;;2.80;0.90;;;;;;;;;;5122546;27;20031;-67
2022/03/31 06:44:02;;;;;;;7.85;1.20;;;;;;;;;;5125213;27;20024;-67
2022/03/31 06:46:29;;;;;;;5.70;1.05;;;;;;;;;;5123356;27;20034;-62
2022/03/31 06:48:55;;;;;;;6.10;1.00;;;;;;;;;;5104373;28;20035;-69
2022/03/31 06:51:21;;;;;;;2.10;0.85;;;;;;;;;;5124233;27;20035;-67
2022/03/31 06:53:47;;;;;;;4.15;0.80;;;;;;;;;;5124094;27;20031;-61
2022/03/31 06:56:14;;;;;;;4.45;0.80;;;;;;;;;;5122050;27;20031;-66
2022/03/31 06:58:40;;;;;;;1.67;0.88;;;;;;;;;;5124238;27;20378;-66
2022/03/31 07:01:06;;;;;;;5.90;0.90;;;;;;;;;;5123977;27;20015;-63
2022/03/31 07:03:32;;;;;;;2.38;0.85;;;;;;;;;;5122474;27;20076;-68
2022/03/31 07:05:58;;;;;;;3.47;0.77;;;;;;;;;;5122146;27;20057;-62
2022/03/31 07:08:25;;;;;;;2.38;0.80;;;;;;;;;;5104506;27;20422;-69
2022/03/31 07:10:51;;;;;;;3.33;1.02;;;;;;;;;;5123793;27;20050;-70
2022/03/31 07:13:18;;;;;;;2.17;0.90;;;;;;;;;;5125106;27;20061;-64
2022/03/31 07:15:44;;;;;;;1.30;0.77;;;;;;;;;;5124578;27;20019;-71
2022/03/31 07:18:10;;;;;;;1.90;0.80;;;;;;;;;;5116615;27;20034;-64
2022/03/31 07:20:36;;;;;;;2.25;0.80;;;;;;;;;;5113463;28;20027;-69
2022/03/31 07:23:03;;;;;;;2.15;0.80;;;;;;;;;;5112519;28;20046;-65
2022/03/31 07:25:29;;;;;;;8.25;0.88;;;;;;;;;;5126253;27;20054;-68
2022/03/31 07:27:55;;;;;;;4.95;0.80;;;;;;;;;;5123525;27;20031;-66
2022/03/31 07:30:22;;;;;;;1.08;0.90;;;;;;;;;;5104726;27;20026;-70
2022/03/31 07:32:55;;;;;;;1.90;0.77;;;;;;;;;;5121415;27;20064;-67
2022/03/31 07:35:22;;;;;;;2.22;0.70;;;;;;;;;;5122072;27;20020;-69
2022/03/31 07:37:49;;;;;;;2.28;1.02;;;;;;;;;;5103103;27;20024;-65
2022/03/31 07:40:15;;;;;;;1.20;0.85;;;;;;;;;;5104321;27;20019;-68
2022/03/31 07:42:42;;;;;;;1.60;0.77;;;;;;;;;;5121784;27;20023;-67
2022/03/31 07:45:09;;;;;;;3.50;0.73;;;;;;;;;;5120984;27;20023;-67
2022/03/31 07:47:36;;;;;;;2.10;1.00;;;;;;;;;;5125451;27;20061;-69
2022/03/31 07:50:02;;;;;;;1.88;1.00;;;;;;;;;;5121293;27;20064;-65
2022/03/31 07:52:28;;;;;;;1.67;0.90;;;;;;;;;;5120078;27;20054;-67
2022/03/31 07:54:54;;;;;;;1.70;0.90;;;;;;;;;;5126671;27;20054;-65
2022/03/31 07:57:20;;;;;;;3.88;1.00;;;;;;;;;;5132214;27;20502;-66
2022/03/31 07:59:46;;;;;;;3.58;1.20;;;;;;;;;;5126541;27;20029;-66
2022/03/31 08:02:12;;;;;;;3.38;1.00;;;;;;;;;;5126336;27;20064;-68
2022/03/31 08:04:37;;;;;;;6.50;1.20;;;;;;;;;;5121672;27;20024;-68
2022/03/31 08:07:04;;;;;;;2.08;0.98;;;;;;;;;;5101367;28;20135;-66
2022/03/31 08:09:30;;;;;;;1.85;0.90;;;;;;;;;;5131667;27;20370;-67
2022/03/31 08:11:56;;;;;;;1.75;0.95;;;;;;;;;;5132108;27;20026;-70
2022/03/31 08:14:22;;;;;;;2.42;1.10;;;;;;;;;;5114262;27;20035;-67
2022/03/31 08:16:49;;;;;;;3.97;0.98;;;;;;;;;;5117916;27;20015;-63
2022/03/31 08:19:18;;;;;;;1.15;0.80;;;;;;;;;;5120213;27;20038;-67
2022/03/31 08:21:44;;;;;;;1.55;0.90;;;;;;;;;;5093242;28;20603;-66
2022/03/31 08:24:11;;;;;;;1.17;0.90;;;;;;;;;;5114939;27;20023;-67
2022/03/31 08:26:37;;;;;;;3.63;0.98;;;;;;;;;;5130822;27;20035;-66
2022/03/31 08:29:04;;;;;;;2.20;0.90;;;;;;;;;;5112874;27;20079;-64
2022/03/31 08:31:30;;;;;;;1.95;0.98;;;;;;;;;;5132345;27;20016;-68
2022/03/31 08:33:56;;;;;;;2.22;0.93;;;;;;;;;;5132751;27;20046;-65
2022/03/31 08:36:22;;;;;;;3.35;0.77;;;;;;;;;;5132606;27;20103;-66
2022/03/31 08:38:48;;;;;;;1.20;0.85;;;;;;;;;;5128781;27;20081;-64
2022/03/31 08:41:15;;;;;;;6.85;1.00;;;;;;;;;;5093453;28;20529;-65
2022/03/31 08:43:42;;;;;;;1.80;1.00;;;;;;;;;;5111901;28;20065;-67
2022/03/31 08:46:09;;;;;;;3.22;0.90;;;;;;;;;;5119389;27;20051;-67
2022/03/31 08:48:36;;;;;;;2.33;0.85;;;;;;;;;;5113908;27;20027;-67
2022/03/31 08:51:02;;;;;;;1.52;0.70;;;;;;;;;;5132426;27;20027;-67
2022/03/31 08:53:28;;;;;;;2.42;0.85;;;;;;;;;;5124685;27;20055;-68
2022/03/31 08:55:54;;;;;;;1.77;0.70;;;;;;;;;;5116256;27;20059;-67
2022/03/31 08:58:20;;;;;;;1.25;0.80;;;;;;;;;;5119309;27;20046;-65
2022/03/31 09:00:46;;;;;;;2.38;0.98;;;;;;;;;;5121415;27;20024;-68
2022/03/31 09:03:12;;;;;;;3.83;0.80;;;;;;;;;;5125523;27;20035;-68
2022/03/31 09:05:41;;;;;;;1.45;0.77;;;;;;;;;;5117132;27;20028;-64
2022/03/31 09:08:09;;;;;;;4.50;0.80;;;;;;;;;;5129082;27;20039;-64
2022/03/31 09:10:44;;;;;;;1.08;0.50;;;;;;;;;;5104616;27;20512;-64
2022/03/31 09:13:24;;;;;;;1.73;0.70;;;;;;;;;;5116044;27;20596;-66
2022/03/31 09:15:50;;;;;;;1.13;0.70;;;;;;;;;;5118381;27;20031;-66
2022/03/31 09:18:20;;;;;;;3.60;0.80;;;;;;;;;;5112440;27;20500;-61
2022/03/31 09:20:47;;;;;;;3.08;0.80;;;;;;;;;;5119518;27;20466;-68
2022/03/31 09:23:17;;;;;;;1.10;0.70;;;;;;;;;;5105708;28;20086;-65
2022/03/31 09:25:44;;;;;;;3.20;0.90;;;;;;;;;;5103780;27;20043;-66
2022/03/31 09:28:21;;;;;;;1.63;0.90;;;;;;;;;;5119797;27;20578;-63
2022/03/31 09:31:19;;;;;;;0.95;0.60;;;;;;;;;;5118015;28;20031;-65
2022/03/31 09:33:48;;;;;;;1.80;0.77;;;;;;;;;;5115830;28;20042;-66
2022/03/31 09:36:26;;;;;;;1.05;0.70;;;;;;;;;;5110531;28;20077;-65
2022/03/31 09:38:54;;;;;;;2.22;0.70;;;;;;;;;;5120763;28;20036;-66
2022/03/31 09:41:27;;;;;;;1.10;0.75;;;;;;;;;;5126662;28;20049;-65
2022/03/31 09:43:55;;;;;;;1.95;0.60;;;;;;;;;;5103825;28;20772;-68
2022/03/31 09:46:35;;;;;;;2.25;0.70;;;;;;;;;;5114058;28;20512;-66
2022/03/31 09:49:17;;;;;;;2.95;0.85;;;;;;;;;;5116094;27;20035;-66
2022/03/31 09:51:45;;;;;;;3.47;0.50;;;;;;;;;;5116114;28;20039;-67
2022/03/31 09:54:11;;;;;;;1.00;0.60;;;;;;;;;;5123910;28;20448;-66
2022/03/31 09:56:40;;;;;;;0.95;0.57;;;;;;;;;;5120956;28;20023;-66
2022/03/31 09:59:11;;;;;;;1.42;0.68;;;;;;;;;;5122767;28;20028;-69
2022/03/31 10:01:38;;;;;;;1.77;0.70;;;;;;;;;;5108988;28;20371;-67
2022/03/31 10:04:08;;;;;;;0.98;0.70;;;;;;;;;;5115084;28;20054;-68
2022/03/31 10:06:38;;;;;;;2.70;0.70;;;;;;;;;;5114482;28;20062;-68
2022/03/31 10:09:05;;;;;;;2.67;0.70;;;;;;;;;;5123871;28;20360;-66
2022/03/31 10:11:33;;;;;;;3.45;0.77;;;;;;;;;;5119999;28;20039;-67
2022/03/31 10:14:11;;;;;;;0.52;0.50;;;;;;;;;;5124850;28;20497;-67
2022/03/31 10:16:41;;;;;;;1.70;0.57;;;;;;;;;;5122967;28;20023;-66
2022/03/31 10:19:08;;;;;;;2.67;0.60;;;;;;;;;;5122327;28;20374;-65
2022/03/31 10:21:34;;;;;;;2.20;1.00;;;;;;;;;;5117235;28;20394;-65
2022/03/31 10:26:45;;;;;;;6.10;2.00;;;;;;;;;;5110042;28;20525;-65
2022/03/31 10:29:13;;;;;;;5.40;2.53;;;;;;;;;;5117553;27;20042;-67
2022/03/31 10:31:40;;;;;;;7.03;3.30;;;;;;;;;;5124418;27;20023;-65
2022/03/31 10:34:07;;;;;;;10.85;4.47;;;;;;;;;;5118814;27;20054;-66
2022/03/31 10:36:43;;;;;;;8.38;4.53;;;;;;;;;;5102217;28;20455;-64
2022/03/31 10:39:16;;;;;;;6.32;4.15;;;;;;;;;;5101682;27;20432;-65
2022/03/31 10:41:43;;;;;;;;;;;;;;;;;;5118674;27;20023;-65
2022/03/31 10:44:12;;;;;;;9.23;5.18;;;;;;;;;;5124080;27;19922;-66
2022/03/31 10:46:43;;;;;;;11.15;5.80;;;;;;;;;;5130969;27;20547;-66
2022/03/31 10:49:12;;;;;;;16.55;6.82;;;;;;;;;;5098210;28;20063;-67
2022/03/31 10:51:40;;;;;;;18.23;8.45;;;;;;;;;;5119197;27;20106;-64
2022/03/31 10:54:09;;;;;;;15.52;7.88;;;;;;;;;;5115290;27;20046;-69
2022/03/31 10:56:35;;;;;;;19.08;7.85;;;;;;;;;;5122742;27;20084;-67
2022/03/31 10:59:05;;;;;;;17.00;7.80;;;;;;;;;;5104896;27;20015;-64
2022/03/31 11:01:35;;;;;;;21.77;7.63;;;;;;;;;;5121706;27;20035;-68
2022/03/31 11:04:02;;;;;;;23.60;7.70;;;;;;;;;;5119587;27;20043;-65
2022/03/31 11:06:32;;;;;;;15.30;6.97;;;;;;;;;;5116310;27;20118;-63
2022/03/31 11:08:58;;;;;;;13.32;6.10;;;;;;;;;;5120125;27;20068;-67
2022/03/31 11:11:30;;;;;;;13.65;5.88;;;;;;;;;;5129157;27;20068;-62
2022/03/31 11:13:59;;;;;;;10.07;5.20;;;;;;;;;;5116763;27;20036;-66
2022/03/31 11:16:38;;;;;;;9.73;4.47;;;;;;;;;;5121604;27;20420;-66
2022/03/31 11:19:05;;;;;;;10.52;5.45;;;;;;;;;;5122665;27;20039;-66
2022/03/31 11:21:35;;;;;;;11.60;4.55;;;;;;;;;;5102595;27;20076;-67
2022/03/31 11:24:01;;;;;;;14.70;3.92;;;;;;;;;;5121599;27;20402;-65
2022/03/31 11:26:28;;;;;;;8.93;3.85;;;;;;;;;;5122110;27;20053;-65
2022/03/31 11:28:54;;;;;;;10.50;3.22;;;;;;;;;;5121267;27;20550;-64
2022/03/31 11:31:20;;;;;;;10.25;3.17;;;;;;;;;;5118880;27;20015;-68
2022/03/31 11:33:46;;;;;;;5.28;2.83;;;;;;;;;;5121687;27;20481;-65
2022/03/31 11:36:12;;;;;;;7.03;3.00;;;;;;;;;;5104052;27;20359;-65
2022/03/31 11:38:38;;;;;;;4.97;2.45;;;;;;;;;;5105129;27;20027;-67
2022/03/31 11:41:04;;;;;;;6.05;2.25;;;;;;;;;;5123135;27;20027;-67
2022/03/31 11:43:31;;;;;;;3.15;2.20;;;;;;;;;;5128419;27;20042;-65
2022/03/31 11:45:57;;;;;;;4.95;2.15;;;;;;;;;;5118309;27;20484;-65
2022/03/31 11:48:25;;;;;;;4.18;1.95;;;;;;;;;;5120925;27;20044;-66
2022/03/31 11:50:58;;;;;;;4.20;1.50;;;;;;;;;;5117975;27;20119;-64
2022/03/31 11:53:28;;;;;;;8.70;1.70;;;;;;;;;;5124492;27;20061;-65
2022/03/31 11:56:04;;;;;;;3.17;1.20;;;;;;;;;;5121676;27;20023;-66
2022/03/31 11:58:33;;;;;;;6.30;1.50;;;;;;;;;;5116143;27;20031;-63
2022/03/31 12:00:59;;;;;;;1.92;1.58;;;;;;;;;;5121199;27;20034;-65
2022/03/31 12:03:36;;;;;;;4.18;1.27;;;;;;;;;;5117754;27;20043;-67
2022/03/31 12:06:02;;;;;;;10.27;1.48;;;;;;;;;;5099577;27;20036;-69
2022/03/31 12:08:29;;;;;;;6.10;1.25;;;;;;;;;;5114293;27;20079;-67
2022/03/31 12:10:55;;;;;;;3.03;1.40;;;;;;;;;;5116927;27;20020;-68
2022/03/31 12:13:23;;;;;;;4.43;1.30;;;;;;;;;;5129880;27;20137;-64
2022/03/31 12:15:49;;;;;;;1.70;1.10;;;;;;;;;;5117317;27;20123;-64
2022/03/31 12:18:19;;;;;;;2.45;1.20;;;;;;;;;;5129066;27;20111;-64
2022/03/31 12:20:49;;;;;;;10.70;1.13;;;;;;;;;;5112044;27;20053;-66
2022/03/31 12:23:22;;;;;;;3.78;1.58;;;;;;;;;;5125638;27;20027;-70
2022/03/31 12:25:48;;;;;;;2.30;1.42;;;;;;;;;;5128241;27;20050;-65
2022/03/31 12:28:17;;;;;;;7.30;1.60;;;;;;;;;;5115896;27;20031;-64
2022/03/31 12:30:45;;;;;;;10.88;1.67;;;;;;;;;;5118424;27;20688;-61
2022/03/31 12:33:27;;;;;;;3.58;1.48;;;;;;;;;;5114438;27;20032;-68
2022/03/31 12:36:00;;;;;;;10.95;1.90;;;;;;;;;;5116397;27;20077;-61
2022/03/31 12:38:38;;;;;;;4.65;1.60;;;;;;;;;;5122041;27;20020;-64
2022/03/31 12:41:09;;;;;;;9.35;1.60;;;;;;;;;;5123930;27;20347;-64
2022/03/31 12:43:35;;;;;;;6.03;1.70;;;;;;;;;;5129345;27;20099;-65
2022/03/31 12:46:12;;;;;;;7.00;1.80;;;;;;;;;;5119823;27;20020;-66
2022/03/31 12:48:38;;;;;;;3.75;1.45;;;;;;;;;;5130295;27;20039;-65
2022/03/31 12:51:04;;;;;;;6.60;1.58;;;;;;;;;;5126270;27;20037;-64
2022/03/31 12:53:41;;;;;;;2.92;1.40;;;;;;;;;;5115452;27;20024;-64
2022/03/31 12:56:09;;;;;;;3.53;1.35;;;;;;;;;;5118801;27;20019;-67
2022/03/31 12:58:36;;;;;;;5.93;1.50;;;;;;;;;;5103396;27;20031;-66
2022/03/31 13:01:02;;;;;;;7.03;1.30;;;;;;;;;;5117789;27;20035;-67
2022/03/31 13:03:28;;;;;;;6.95;1.65;;;;;;;;;;5123099;27;20383;-67
2022/03/31 13:05:54;;;;;;;8.40;1.83;;;;;;;;;;5128953;27;20031;-69
2022/03/31 13:08:20;;;;;;;2.60;1.20;;;;;;;;;;5125282;27;20050;-69
2022/03/31 13:10:46;;;;;;;5.03;1.27;;;;;;;;;;5118246;27;20100;-69
2022/03/31 13:13:12;;;;;;;4.07;1.42;;;;;;;;;;5123914;27;20055;-63
2022/03/31 13:15:41;;;;;;;3.20;1.30;;;;;;;;;;5121932;27;20023;-66
2022/03/31 13:18:08;;;;;;;2.10;1.10;;;;;;;;;;5123232;27;20042;-66
2022/03/31 13:20:35;;;;;;;4.57;1.27;;;;;;;;;;5121155;27;20490;-62
2022/03/31 13:23:01;;;;;;;2.67;1.27;;;;;;;;;;5125952;27;20508;-64
2022/03/31 13:25:27;;;;;;;2.92;1.25;;;;;;;;;;5119927;27;20038;-63
2022/03/31 13:27:53;;;;;;;6.10;1.27;;;;;;;;;;5125794;27;20035;-67
2022/03/31 13:30:19;;;;;;;3.30;1.05;;;;;;;;;;5119260;27;20027;-67
2022/03/31 13:32:45;;;;;;;1.88;0.90;;;;;;;;;;5119221;28;20505;-64
2022/03/31 13:35:12;;;;;;;2.60;0.98;;;;;;;;;;5125949;28;20031;-66
2022/03/31 13:37:38;;;;;;;2.47;1.08;;;;;;;;;;5123344;28;20032;-64
2022/03/31 13:40:07;;;;;;;4.38;1.00;;;;;;;;;;5126947;28;20568;-64
2022/03/31 13:42:35;;;;;;;4.13;1.00;;;;;;;;;;5123452;28;20019;-62
2022/03/31 13:45:02;;;;;;;5.68;1.10;;;;;;;;;;5118608;28;20501;-66
2022/03/31 13:47:29;;;;;;;7.13;0.90;;;;;;;;;;5123487;28;20035;-67
2022/03/31 13:49:55;;;;;;;10.57;1.10;;;;;;;;;;5128455;28;20458;-65
2022/03/31 13:52:21;;;;;;;2.85;0.90;;;;;;;;;;5126032;28;20111;-64
2022/03/31 13:54:47;;;;;;;5.55;0.88;;;;;;;;;;5127742;28;20043;-64
2022/03/31 14:02:45;;;;;;;2.58;0.90;;;;;;;;;;5112886;28;20082;-68
2022/03/31 14:05:11;;;;;;;2.75;0.98;;;;;;;;;;5119442;27;20474;-66
2022/03/31 14:07:37;;;;;;;4.18;0.85;;;;;;;;;;5123855;27;20028;-65
2022/03/31 14:10:04;;;;;;;9.68;1.00;;;;;;;;;;5118992;27;20038;-66
2022/03/31 14:12:30;;;;;;;3.83;0.93;;;;;;;;;;5108910;27;20118;-62
2022/03/31 14:14:56;;;;;;;1.45;0.68;;;;;;;;;;5130058;27;20164;-70
2022/03/31 14:17:22;;;;;;;4.20;0.90;;;;;;;;;;5130062;27;20038;-65
2022/03/31 14:19:48;;;;;;;3.08;0.73;;;;;;;;;;5128228;27;20012;-66
2022/03/31 14:22:14;;;;;;;3.22;0.77;;;;;;;;;;5116793;27;20055;-62
2022/03/31 14:24:41;;;;;;;7.03;0.63;;;;;;;;;;5121922;27;20047;-64
2022/03/31 14:27:07;;;;;;;6.80;1.13;;;;;;;;;;5118025;27;20044;-67
2022/03/31 14:29:34;;;;;;;9.85;0.98;;;;;;;;;;5095958;28;20069;-64
2022/03/31 14:32:00;;;;;;;12.65;0.80;;;;;;;;;;5114346;27;20421;-64
2022/03/31 14:34:26;;;;;;;9.73;0.90;;;;;;;;;;5114275;28;20506;-67
2022/03/31 14:36:54;;;;;;;14.85;1.00;;;;;;;;;;5114349;27;20043;-65
2022/03/31 14:39:21;;;;;;;6.47;0.75;;;;;;;;;;5114358;28;20023;-64
2022/03/31 14:41:48;;;;;;;5.55;0.93;;;;;;;;;;5114139;27;20643;-66
2022/03/31 14:44:15;;;;;;;8.32;0.90;;;;;;;;;;5114196;28;20020;-67
2022/03/31 14:46:41;;;;;;;5.30;0.77;;;;;;;;;;5120118;27;20031;-65
2022/03/31 14:49:08;;;;;;;11.88;0.90;;;;;;;;;;5123805;27;20031;-67
2022/03/31 14:51:34;;;;;;;5.63;1.10;;;;;;;;;;5113785;28;20147;-64
2022/03/31 14:54:02;;;;;;;4.78;0.98;;;;;;;;;;5119715;27;20023;-62
2022/03/31 14:56:29;;;;;;;6.88;1.20;;;;;;;;;;5133474;27;20049;-67
2022/03/31 14:58:55;;;;;;;5.85;0.88;;;;;;;;;;5127194;27;20561;-64
2022/03/31 15:01:22;;;;;;;15.15;1.20;;;;;;;;;;5113162;28;20427;-67
2022/03/31 15:03:50;;;;;;;3.40;0.80;;;;;;;;;;5113722;28;20371;-63